sensor_id;sensor_type;location;lat;lon;timestamp;P1;durP1;ratioP1;P2;durP2;ratioP2
15643;SDS011;7921;43.586;1.408;2023-02-28T00:00:31;2.80;;;2.50;;
15643;SDS011;7921;43.586;1.408;2023-02-28T00:02:57;5.10;;;2.63;;
15643;SDS011;7921;43.586;1.408;2023-02-28T00:05:24;2.60;;;2.40;;
15643;SDS011;7921;43.586;1.408;2023-02-28T00:07:50;2.60;;;2.40;;
15643;SDS011;7921;43.586;1.408;2023-02-28T00:10:17;2.60;;;2.40;;
15643;SDS011;7921;43.586;1.408;2023-02-28T00:12:46;2.63;;;2.43;;
15643;SDS011;7921;43.586;1.408;2023-02-28T00:15:12;4.57;;;3.50;;
15643;SDS011;7921;43.586;1.408;2023-02-28T00:17:37;5.57;;;5.17;;
15643;SDS011;7921;43.586;1.408;2023-02-28T00:20:03;6.30;;;5.70;;
15643;SDS011;7921;43.586;1.408;2023-02-28T00:22:33;6.37;;;5.87;;
15643;SDS011;7921;43.586;1.408;2023-02-28T00:24:58;4.70;;;4.30;;
15643;SDS011;7921;43.586;1.408;2023-02-28T00:27:24;4.40;;;3.40;;
15643;SDS011;7921;43.586;1.408;2023-02-28T00:29:49;3.77;;;2.73;;
15643;SDS011;7921;43.586;1.408;2023-02-28T00:32:15;3.00;;;2.70;;
15643;SDS011;7921;43.586;1.408;2023-02-28T00:34:40;3.80;;;2.53;;
15643;SDS011;7921;43.586;1.408;2023-02-28T00:37:06;2.77;;;2.57;;
15643;SDS011;7921;43.586;1.408;2023-02-28T00:39:33;2.37;;;2.17;;
15643;SDS011;7921;43.586;1.408;2023-02-28T00:41:59;2.60;;;2.40;;
15643;SDS011;7921;43.586;1.408;2023-02-28T00:44:24;3.03;;;2.73;;
15643;SDS011;7921;43.586;1.408;2023-02-28T00:46:50;2.50;;;2.30;;
15643;SDS011;7921;43.586;1.408;2023-02-28T00:49:16;2.37;;;2.17;;
15643;SDS011;7921;43.586;1.408;2023-02-28T00:51:42;2.47;;;2.27;;
15643;SDS011;7921;43.586;1.408;2023-02-28T00:54:07;2.87;;;2.50;;
15643;SDS011;7921;43.586;1.408;2023-02-28T00:56:33;3.00;;;2.70;;
15643;SDS011;7921;43.586;1.408;2023-02-28T00:58:58;3.30;;;3.00;;
15643;SDS011;7921;43.586;1.408;2023-02-28T01:01:23;3.53;;;3.23;;
15643;SDS011;7921;43.586;1.408;2023-02-28T01:03:49;3.27;;;2.80;;
15643;SDS011;7921;43.586;1.408;2023-02-28T01:06:14;3.67;;;3.33;;
15643;SDS011;7921;43.586;1.408;2023-02-28T01:08:39;2.53;;;2.33;;
15643;SDS011;7921;43.586;1.408;2023-02-28T01:11:09;3.30;;;3.00;;
15643;SDS011;7921;43.586;1.408;2023-02-28T01:13:36;3.50;;;3.20;;
15643;SDS011;7921;43.586;1.408;2023-02-28T01:16:01;3.57;;;2.53;;
15643;SDS011;7921;43.586;1.408;2023-02-28T01:18:27;2.80;;;2.60;;
15643;SDS011;7921;43.586;1.408;2023-02-28T01:20:53;2.87;;;2.50;;
15643;SDS011;7921;43.586;1.408;2023-02-28T01:23:19;5.17;;;2.43;;
15643;SDS011;7921;43.586;1.408;2023-02-28T01:25:46;2.80;;;2.53;;
15643;SDS011;7921;43.586;1.408;2023-02-28T01:28:12;2.73;;;2.53;;
15643;SDS011;7921;43.586;1.408;2023-02-28T01:30:37;3.43;;;3.07;;
15643;SDS011;7921;43.586;1.408;2023-02-28T01:33:02;3.30;;;2.70;;
15643;SDS011;7921;43.586;1.408;2023-02-28T01:35:28;2.50;;;2.30;;
15643;SDS011;7921;43.586;1.408;2023-02-28T01:37:53;3.40;;;2.43;;
15643;SDS011;7921;43.586;1.408;2023-02-28T01:40:19;2.67;;;2.47;;
15643;SDS011;7921;43.586;1.408;2023-02-28T01:42:44;2.50;;;2.30;;
15643;SDS011;7921;43.586;1.408;2023-02-28T01:45:31;3.10;;;2.90;;
15643;SDS011;7921;43.586;1.408;2023-02-28T01:48:00;2.87;;;2.40;;
15643;SDS011;7921;43.586;1.408;2023-02-28T01:50:28;2.60;;;2.40;;
15643;SDS011;7921;43.586;1.408;2023-02-28T01:52:57;3.47;;;2.67;;
15643;SDS011;7921;43.586;1.408;2023-02-28T01:55:27;2.60;;;2.40;;
15643;SDS011;7921;43.586;1.408;2023-02-28T01:57:55;3.03;;;2.60;;
15643;SDS011;7921;43.586;1.408;2023-02-28T02:00:23;3.10;;;2.80;;
15643;SDS011;7921;43.586;1.408;2023-02-28T02:02:51;2.70;;;2.50;;
15643;SDS011;7921;43.586;1.408;2023-02-28T02:05:21;3.10;;;2.33;;
15643;SDS011;7921;43.586;1.408;2023-02-28T02:07:50;4.07;;;2.40;;
15643;SDS011;7921;43.586;1.408;2023-02-28T02:10:18;3.23;;;3.03;;
15643;SDS011;7921;43.586;1.408;2023-02-28T02:18:32;3.40;;;2.83;;
15643;SDS011;7921;43.586;1.408;2023-02-28T02:34:55;2.60;;;2.40;;
15643;SDS011;7921;43.586;1.408;2023-02-28T02:37:39;2.67;;;2.30;;
15643;SDS011;7921;43.586;1.408;2023-02-28T02:40:29;3.10;;;2.70;;
15643;SDS011;7921;43.586;1.408;2023-02-28T02:45:40;2.70;;;2.50;;
15643;SDS011;7921;43.586;1.408;2023-02-28T02:48:11;3.70;;;3.20;;
15643;SDS011;7921;43.586;1.408;2023-02-28T02:50:42;2.87;;;2.67;;
15643;SDS011;7921;43.586;1.408;2023-02-28T02:53:09;2.80;;;2.60;;
15643;SDS011;7921;43.586;1.408;2023-02-28T02:55:37;3.03;;;2.83;;
15643;SDS011;7921;43.586;1.408;2023-02-28T02:58:05;3.10;;;2.70;;
15643;SDS011;7921;43.586;1.408;2023-02-28T03:00:41;3.57;;;3.17;;
15643;SDS011;7921;43.586;1.408;2023-02-28T03:03:11;3.00;;;2.77;;
15643;SDS011;7921;43.586;1.408;2023-02-28T03:08:16;3.97;;;2.77;;
15643;SDS011;7921;43.586;1.408;2023-02-28T03:10:43;3.27;;;3.00;;
15643;SDS011;7921;43.586;1.408;2023-02-28T03:21:17;3.70;;;2.93;;
15643;SDS011;7921;43.586;1.408;2023-02-28T03:24:08;3.63;;;3.03;;
15643;SDS011;7921;43.586;1.408;2023-02-28T03:27:07;3.33;;;3.03;;
15643;SDS011;7921;43.586;1.408;2023-02-28T03:29:39;3.80;;;3.50;;
15643;SDS011;7921;43.586;1.408;2023-02-28T03:32:13;3.47;;;2.80;;
15643;SDS011;7921;43.586;1.408;2023-02-28T03:34:47;3.07;;;2.83;;
15643;SDS011;7921;43.586;1.408;2023-02-28T03:37:16;3.20;;;2.73;;
15643;SDS011;7921;43.586;1.408;2023-02-28T03:39:46;3.40;;;3.10;;
15643;SDS011;7921;43.586;1.408;2023-02-28T03:42:15;3.77;;;3.47;;
15643;SDS011;7921;43.586;1.408;2023-02-28T03:44:45;3.30;;;3.00;;
15643;SDS011;7921;43.586;1.408;2023-02-28T03:47:35;2.87;;;2.67;;
15643;SDS011;7921;43.586;1.408;2023-02-28T03:50:09;3.93;;;3.30;;
15643;SDS011;7921;43.586;1.408;2023-02-28T03:52:38;3.47;;;2.97;;
15643;SDS011;7921;43.586;1.408;2023-02-28T03:55:10;3.40;;;3.10;;
15643;SDS011;7921;43.586;1.408;2023-02-28T04:00:28;3.33;;;3.03;;
15643;SDS011;7921;43.586;1.408;2023-02-28T04:02:56;2.97;;;2.77;;
15643;SDS011;7921;43.586;1.408;2023-02-28T04:05:21;3.10;;;2.90;;
15643;SDS011;7921;43.586;1.408;2023-02-28T04:07:47;3.00;;;2.80;;
15643;SDS011;7921;43.586;1.408;2023-02-28T04:10:13;5.27;;;3.30;;
15643;SDS011;7921;43.586;1.408;2023-02-28T04:12:38;3.30;;;3.00;;
15643;SDS011;7921;43.586;1.408;2023-02-28T04:15:04;3.33;;;2.97;;
15643;SDS011;7921;43.586;1.408;2023-02-28T04:17:30;3.73;;;3.07;;
15643;SDS011;7921;43.586;1.408;2023-02-28T04:19:55;3.53;;;3.23;;
15643;SDS011;7921;43.586;1.408;2023-02-28T04:22:22;3.67;;;3.37;;
15643;SDS011;7921;43.586;1.408;2023-02-28T04:24:47;3.33;;;3.10;;
15643;SDS011;7921;43.586;1.408;2023-02-28T04:27:13;3.00;;;2.80;;
15643;SDS011;7921;43.586;1.408;2023-02-28T04:29:40;4.03;;;3.67;;
15643;SDS011;7921;43.586;1.408;2023-02-28T04:32:09;3.57;;;2.90;;
15643;SDS011;7921;43.586;1.408;2023-02-28T04:34:35;4.33;;;3.53;;
15643;SDS011;7921;43.586;1.408;2023-02-28T04:37:01;3.10;;;2.90;;
15643;SDS011;7921;43.586;1.408;2023-02-28T04:39:26;4.00;;;3.60;;
15643;SDS011;7921;43.586;1.408;2023-02-28T04:41:52;3.77;;;3.43;;
15643;SDS011;7921;43.586;1.408;2023-02-28T04:44:17;3.70;;;3.40;;
15643;SDS011;7921;43.586;1.408;2023-02-28T04:46:42;3.77;;;3.47;;
15643;SDS011;7921;43.586;1.408;2023-02-28T04:49:09;4.27;;;3.97;;
15643;SDS011;7921;43.586;1.408;2023-02-28T04:51:36;4.20;;;3.80;;
15643;SDS011;7921;43.586;1.408;2023-02-28T04:54:01;4.63;;;4.13;;
15643;SDS011;7921;43.586;1.408;2023-02-28T04:56:26;4.40;;;4.00;;
15643;SDS011;7921;43.586;1.408;2023-02-28T04:58:52;4.83;;;4.30;;
15643;SDS011;7921;43.586;1.408;2023-02-28T05:03:50;5.13;;;4.07;;
15643;SDS011;7921;43.586;1.408;2023-02-28T05:06:17;4.33;;;3.93;;
15643;SDS011;7921;43.586;1.408;2023-02-28T05:08:43;6.10;;;4.17;;
15643;SDS011;7921;43.586;1.408;2023-02-28T05:11:18;4.50;;;3.50;;
15643;SDS011;7921;43.586;1.408;2023-02-28T05:13:45;6.10;;;4.17;;
15643;SDS011;7921;43.586;1.408;2023-02-28T05:16:10;4.47;;;3.30;;
15643;SDS011;7921;43.586;1.408;2023-02-28T05:18:36;4.73;;;4.13;;
15643;SDS011;7921;43.586;1.408;2023-02-28T05:21:02;4.03;;;3.60;;
15643;SDS011;7921;43.586;1.408;2023-02-28T05:23:28;4.30;;;3.90;;
15643;SDS011;7921;43.586;1.408;2023-02-28T05:25:53;4.37;;;4.03;;
15643;SDS011;7921;43.586;1.408;2023-02-28T05:28:19;4.70;;;4.30;;
15643;SDS011;7921;43.586;1.408;2023-02-28T05:30:45;4.77;;;3.63;;
15643;SDS011;7921;43.586;1.408;2023-02-28T05:33:11;4.40;;;4.00;;
15643;SDS011;7921;43.586;1.408;2023-02-28T05:35:38;4.97;;;3.97;;
15643;SDS011;7921;43.586;1.408;2023-02-28T05:38:04;4.77;;;4.27;;
15643;SDS011;7921;43.586;1.408;2023-02-28T05:40:29;4.03;;;3.67;;
15643;SDS011;7921;43.586;1.408;2023-02-28T05:42:54;4.30;;;3.77;;
15643;SDS011;7921;43.586;1.408;2023-02-28T05:45:20;4.43;;;3.67;;
15643;SDS011;7921;43.586;1.408;2023-02-28T05:47:45;4.57;;;4.17;;
15643;SDS011;7921;43.586;1.408;2023-02-28T05:50:11;4.40;;;4.00;;
15643;SDS011;7921;43.586;1.408;2023-02-28T05:52:36;4.97;;;4.57;;
15643;SDS011;7921;43.586;1.408;2023-02-28T05:55:02;4.80;;;4.20;;
15643;SDS011;7921;43.586;1.408;2023-02-28T05:57:28;4.20;;;3.80;;
15643;SDS011;7921;43.586;1.408;2023-02-28T05:59:53;4.67;;;4.37;;
15643;SDS011;7921;43.586;1.408;2023-02-28T06:02:19;4.97;;;4.47;;
15643;SDS011;7921;43.586;1.408;2023-02-28T06:04:44;4.70;;;4.30;;
15643;SDS011;7921;43.586;1.408;2023-02-28T06:07:10;4.97;;;4.57;;
15643;SDS011;7921;43.586;1.408;2023-02-28T06:09:35;6.43;;;4.97;;
15643;SDS011;7921;43.586;1.408;2023-02-28T06:12:01;5.27;;;4.70;;
15643;SDS011;7921;43.586;1.408;2023-02-28T06:14:30;4.40;;;4.00;;
15643;SDS011;7921;43.586;1.408;2023-02-28T06:16:56;4.93;;;4.50;;
15643;SDS011;7921;43.586;1.408;2023-02-28T06:19:22;5.00;;;4.50;;
15643;SDS011;7921;43.586;1.408;2023-02-28T06:21:50;4.80;;;3.83;;
15643;SDS011;7921;43.586;1.408;2023-02-28T06:24:17;4.57;;;4.17;;
15643;SDS011;7921;43.586;1.408;2023-02-28T06:26:46;5.30;;;4.77;;
15643;SDS011;7921;43.586;1.408;2023-02-28T06:29:11;4.63;;;4.23;;
15643;SDS011;7921;43.586;1.408;2023-02-28T06:31:37;4.87;;;4.47;;
15643;SDS011;7921;43.586;1.408;2023-02-28T06:34:03;5.30;;;4.80;;
15643;SDS011;7921;43.586;1.408;2023-02-28T06:36:29;5.50;;;4.83;;
15643;SDS011;7921;43.586;1.408;2023-02-28T06:38:55;5.07;;;4.57;;
15643;SDS011;7921;43.586;1.408;2023-02-28T06:46:42;4.27;;;3.93;;
15643;SDS011;7921;43.586;1.408;2023-02-28T06:49:07;5.07;;;4.43;;
15643;SDS011;7921;43.586;1.408;2023-02-28T06:51:34;4.47;;;4.07;;
15643;SDS011;7921;43.586;1.408;2023-02-28T06:54:00;4.83;;;4.27;;
15643;SDS011;7921;43.586;1.408;2023-02-28T06:56:26;5.00;;;4.17;;
15643;SDS011;7921;43.586;1.408;2023-02-28T06:58:51;5.07;;;4.53;;
15643;SDS011;7921;43.586;1.408;2023-02-28T07:01:21;5.20;;;4.80;;
